Time;durP1;ratioP1;P1;durP2;ratioP2;P2;SDS_P1;SDS_P2;PMS_P1;PMS_P2;Temp;Humidity;BMP_temperature;BMP_pressure;BME280_temperature;BME280_humidity;BME280_pressure;Samples;Min_cycle;Max_cycle;Signal;HPM_P1;HPM_P2
2023/07/03 00:00:29;;;;;;;20.77;4.97;;;16.70;98.10;;;;;;5028100;28;20045;-48
2023/07/03 00:02:54;;;;;;;20.42;5.78;;;16.70;98.50;;;;;;5027808;28;20054;-57
2023/07/03 00:05:21;;;;;;;13.60;4.85;;;16.70;98.80;;;;;;5027716;28;20033;-49
2023/07/03 00:07:47;;;;;;;18.63;5.38;;;16.70;99.10;;;;;;5028122;28;20069;-48
2023/07/03 00:10:13;;;;;;;18.90;5.03;;;16.70;99.20;;;;;;5028048;28;20447;-51
2023/07/03 00:12:38;;;;;;;;;;;16.70;99.20;;;;;;5027357;28;20037;-48
2023/07/03 00:15:05;;;;;;;22.30;5.25;;;16.70;99.50;;;;;;5027667;28;19917;-49
2023/07/03 00:17:30;;;;;;;18.65;4.97;;;16.70;99.60;;;;;;5027220;28;20503;-52
2023/07/03 00:19:56;;;;;;;15.38;4.97;;;16.60;99.90;;;;;;5028238;28;20274;-49
2023/07/03 00:22:22;;;;;;;18.30;5.03;;;16.60;99.90;;;;;;5028457;28;20077;-50
2023/07/03 00:24:48;;;;;;;21.48;4.90;;;16.60;99.90;;;;;;5026995;28;20033;-48
2023/07/03 00:27:13;;;;;;;19.25;4.47;;;16.60;99.90;;;;;;5028010;28;20095;-48
2023/07/03 00:29:39;;;;;;;19.77;5.28;;;16.60;99.90;;;;;;5027443;28;20040;-48
2023/07/03 00:32:06;;;;;;;19.80;5.15;;;16.60;99.90;;;;;;5027626;28;20068;-50
2023/07/03 00:34:32;;;;;;;17.67;5.15;;;16.60;99.90;;;;;;5027859;28;20045;-51
2023/07/03 00:36:57;;;;;;;18.63;5.55;;;16.60;99.90;;;;;;5027957;28;20049;-48
2023/07/03 00:39:24;;;;;;;24.08;6.00;;;16.60;99.90;;;;;;5027610;28;20041;-48
2023/07/03 00:41:49;;;;;;;18.88;5.38;;;16.50;99.90;;;;;;5027394;28;20160;-48
2023/07/03 00:44:17;;;;;;;17.70;3.83;;;16.50;99.90;;;;;;5026849;28;20475;-51
2023/07/03 00:46:45;;;;;;;17.35;4.95;;;16.50;99.90;;;;;;5028297;28;20041;-51
2023/07/03 00:49:11;;;;;;;19.25;4.85;;;16.50;99.90;;;;;;5026192;28;20569;-50
2023/07/03 00:51:50;;;;;;;17.30;5.95;;;16.50;99.90;;;;;;5030933;28;20144;-52
2023/07/03 00:54:16;;;;;;;16.92;5.18;;;16.50;99.90;;;;;;5027922;28;20056;-48
2023/07/03 00:56:41;;;;;;;17.48;4.72;;;16.50;99.90;;;;;;5031177;28;20414;-49
2023/07/03 00:59:07;;;;;;;18.75;4.80;;;16.50;99.90;;;;;;5030651;28;20092;-52
2023/07/03 01:01:43;;;;;;;23.15;6.15;;;16.40;99.90;;;;;;5031946;28;20041;-48
2023/07/03 01:04:13;;;;;;;13.70;4.40;;;16.40;99.90;;;;;;5030939;28;20221;-48
2023/07/03 01:06:56;;;;;;;21.48;5.18;;;16.40;99.90;;;;;;5031165;28;20516;-48
2023/07/03 01:09:26;;;;;;;20.02;5.97;;;16.40;99.90;;;;;;5030185;28;20171;-49
2023/07/03 01:11:52;;;;;;;18.02;5.50;;;16.40;99.90;;;;;;5031122;28;20029;-51
2023/07/03 01:14:19;;;;;;;;;;;16.40;99.90;;;;;;5031443;28;20045;-51
2023/07/03 01:16:47;;;;;;;23.10;5.15;;;16.40;99.90;;;;;;5031653;28;19917;-49
2023/07/03 01:19:18;;;;;;;25.23;5.50;;;16.40;99.90;;;;;;5031267;28;20045;-49
2023/07/03 01:21:55;;;;;;;18.00;5.38;;;16.30;99.90;;;;;;5031210;28;20126;-51
2023/07/03 01:24:37;;;;;;;24.85;5.60;;;16.30;99.90;;;;;;5027773;28;20053;-48
2023/07/03 01:27:05;;;;;;;19.45;6.25;;;16.30;99.90;;;;;;5028905;28;20041;-49
2023/07/03 01:29:32;;;;;;;17.58;5.63;;;16.30;99.90;;;;;;5030771;28;20038;-51
2023/07/03 01:31:58;;;;;;;20.77;5.28;;;16.30;99.90;;;;;;5030865;28;20431;-48
2023/07/03 01:34:27;;;;;;;21.02;5.97;;;16.30;99.90;;;;;;5030594;28;20411;-48
2023/07/03 01:36:56;;;;;;;27.73;6.20;;;16.30;99.90;;;;;;5029357;28;20041;-54
2023/07/03 01:39:22;;;;;;;23.13;5.40;;;16.30;99.90;;;;;;5030363;28;20044;-48
2023/07/03 01:41:48;;;;;;;23.05;5.60;;;16.30;99.90;;;;;;5030911;28;20163;-48
2023/07/03 01:44:14;;;;;;;24.13;6.70;;;16.30;99.90;;;;;;5030374;28;20038;-48
2023/07/03 01:46:40;;;;;;;17.70;5.85;;;16.30;99.90;;;;;;5027866;28;20507;-48
2023/07/03 01:49:14;;;;;;;21.63;5.65;;;16.30;99.90;;;;;;5029990;28;20115;-48
2023/07/03 01:52:03;;;;;;;21.83;5.88;;;16.30;99.90;;;;;;5031152;28;20133;-52
2023/07/03 01:54:51;;;;;;;22.67;5.57;;;16.30;99.90;;;;;;5027636;28;20487;-49
2023/07/03 01:57:28;;;;;;;29.88;6.30;;;16.30;99.90;;;;;;5028650;28;20170;-50
2023/07/03 01:59:55;;;;;;;21.85;5.75;;;16.30;99.90;;;;;;5028195;28;20283;-48
2023/07/03 02:02:28;;;;;;;20.50;5.65;;;16.30;99.90;;;;;;5030052;28;20045;-50
2023/07/03 02:05:14;;;;;;;20.85;5.15;;;16.30;99.90;;;;;;5028060;28;20048;-48
2023/07/03 02:07:41;;;;;;;24.05;5.28;;;16.30;99.90;;;;;;5025395;28;20398;-48
2023/07/03 02:10:07;;;;;;;19.55;5.20;;;16.30;99.90;;;;;;5029081;28;20401;-50
2023/07/03 02:12:33;;;;;;;28.20;6.60;;;16.30;99.90;;;;;;5028758;28;20029;-51
2023/07/03 02:15:04;;;;;;;23.88;6.25;;;16.30;99.90;;;;;;5029231;28;20040;-52
2023/07/03 02:17:29;;;;;;;23.58;5.75;;;16.40;99.90;;;;;;5026904;28;20419;-52
2023/07/03 02:19:55;;;;;;;29.75;5.78;;;16.40;99.90;;;;;;5029503;28;20044;-49
2023/07/03 02:22:21;;;;;;;17.55;4.47;;;16.40;99.90;;;;;;5030717;28;20398;-48
2023/07/03 02:24:47;;;;;;;26.58;4.90;;;16.40;99.90;;;;;;5028926;28;20037;-48
2023/07/03 02:27:12;;;;;;;31.20;6.65;;;16.30;99.90;;;;;;5029757;28;20026;-51
2023/07/03 02:29:38;;;;;;;29.10;6.55;;;16.30;99.90;;;;;;5029548;28;20391;-50
2023/07/03 02:32:12;;;;;;;26.50;6.85;;;16.30;99.90;;;;;;5029885;28;20041;-52
2023/07/03 02:34:38;;;;;;;30.33;5.65;;;16.30;99.90;;;;;;5029411;28;20041;-48
2023/07/03 02:37:04;;;;;;;22.55;5.20;;;16.30;99.90;;;;;;5029427;28;20037;-48
2023/07/03 02:39:30;;;;;;;27.02;5.07;;;16.30;99.90;;;;;;5029479;28;20044;-53
2023/07/03 02:41:56;;;;;;;22.40;4.93;;;16.30;99.90;;;;;;5030266;28;20033;-54
2023/07/03 02:44:22;;;;;;;17.77;4.80;;;16.30;99.90;;;;;;5029156;28;20038;-48
2023/07/03 02:46:47;;;;;;;27.10;5.78;;;16.30;99.90;;;;;;5029624;28;20029;-48
2023/07/03 02:49:13;;;;;;;21.45;5.80;;;16.30;99.90;;;;;;5028640;28;20104;-49
2023/07/03 02:51:38;;;;;;;22.13;5.45;;;16.30;99.90;;;;;;5028970;28;20025;-55
2023/07/03 02:54:04;;;;;;;23.90;5.78;;;16.20;99.90;;;;;;5027502;28;20526;-48
2023/07/03 02:56:30;;;;;;;21.02;6.07;;;16.20;99.90;;;;;;5029130;28;20030;-47
2023/07/03 02:58:56;;;;;;;28.02;5.68;;;16.10;99.90;;;;;;5028661;28;20095;-48
2023/07/03 03:01:21;;;;;;;19.48;4.85;;;16.10;99.90;;;;;;5029246;28;20568;-51
2023/07/03 03:03:47;;;;;;;21.45;4.22;;;16.10;99.90;;;;;;5028689;28;20033;-49
2023/07/03 03:06:13;;;;;;;17.67;5.35;;;16.00;99.90;;;;;;5028823;28;20025;-50
2023/07/03 03:08:39;;;;;;;18.70;4.97;;;15.90;99.90;;;;;;5028019;28;20545;-49
2023/07/03 03:11:04;;;;;;;19.55;4.25;;;15.80;99.90;;;;;;5029233;28;20091;-48
2023/07/03 03:13:30;;;;;;;21.15;4.75;;;15.70;99.90;;;;;;5028220;28;20406;-49
2023/07/03 03:15:56;;;;;;;23.17;5.03;;;15.60;99.90;;;;;;5026762;28;20034;-48
2023/07/03 03:18:21;;;;;;;18.85;4.75;;;15.50;99.90;;;;;;5026948;28;20095;-50
2023/07/03 03:20:47;;;;;;;21.42;5.75;;;15.40;99.90;;;;;;5026203;28;20077;-49
2023/07/03 03:23:13;;;;;;;15.82;4.07;;;15.30;99.90;;;;;;5028004;28;20417;-48
2023/07/03 03:25:39;;;;;;;15.50;4.00;;;15.30;99.90;;;;;;5028745;28;20061;-48
2023/07/03 03:28:05;;;;;;;18.60;4.13;;;15.20;99.90;;;;;;5028065;28;20087;-53
2023/07/03 03:30:31;;;;;;;17.58;4.97;;;15.20;99.90;;;;;;5026313;28;20037;-48
2023/07/03 03:32:57;;;;;;;18.40;5.28;;;15.10;99.90;;;;;;5028828;28;20087;-57
2023/07/03 03:35:23;;;;;;;23.38;5.63;;;15.10;99.90;;;;;;5027771;28;20067;-53
2023/07/03 03:37:48;;;;;;;25.15;4.63;;;15.00;99.90;;;;;;5028224;28;20049;-48
2023/07/03 03:40:14;;;;;;;12.05;3.65;;;15.10;99.90;;;;;;5028826;28;20116;-51
2023/07/03 03:42:40;;;;;;;15.38;4.18;;;15.00;99.90;;;;;;5027301;28;20053;-48
2023/07/03 03:45:06;;;;;;;19.95;4.47;;;15.10;99.90;;;;;;5028143;28;20124;-48
2023/07/03 03:47:32;;;;;;;16.90;3.88;;;15.10;99.90;;;;;;5027646;28;20040;-51
2023/07/03 03:49:58;;;;;;;17.85;3.88;;;15.00;99.90;;;;;;5028877;28;20033;-51
2023/07/03 03:52:24;;;;;;;15.85;4.32;;;15.00;99.90;;;;;;5027909;28;20030;-49
2023/07/03 03:54:49;;;;;;;23.20;5.25;;;15.00;99.90;;;;;;5028135;28;20069;-48
2023/07/03 03:57:15;;;;;;;18.35;4.00;;;15.00;99.90;;;;;;5028177;28;20094;-48
2023/07/03 03:59:41;;;;;;;22.95;5.40;;;15.00;99.90;;;;;;5027810;28;20444;-53
2023/07/03 04:02:07;;;;;;;11.75;3.80;;;15.00;99.90;;;;;;5028387;28;20033;-49
2023/07/03 04:04:33;;;;;;;18.48;4.30;;;15.00;99.90;;;;;;5027297;28;20040;-54
2023/07/03 04:06:58;;;;;;;13.02;3.85;;;15.00;99.90;;;;;;5028433;28;20045;-48
2023/07/03 04:09:24;;;;;;;19.38;5.32;;;15.00;99.90;;;;;;5025564;28;20034;-47
2023/07/03 04:11:50;;;;;;;18.92;4.53;;;15.00;99.90;;;;;;5028515;28;20453;-48
2023/07/03 04:14:16;;;;;;;25.63;5.45;;;15.00;99.90;;;;;;5025877;28;20038;-50
2023/07/03 04:16:42;;;;;;;;;;;15.00;99.90;;;;;;5028337;28;20510;-48
2023/07/03 04:19:08;;;;;;;15.10;4.47;;;15.00;99.90;;;;;;5027584;28;19964;-51
2023/07/03 04:21:34;;;;;;;17.05;3.97;;;15.00;99.90;;;;;;5030195;28;20323;-51
2023/07/03 04:23:59;;;;;;;15.73;4.00;;;15.00;99.90;;;;;;5031723;28;20418;-49
2023/07/03 04:26:25;;;;;;;17.20;3.72;;;15.00;99.90;;;;;;5030781;28;20037;-48
2023/07/03 04:28:50;;;;;;;18.92;4.20;;;15.00;99.90;;;;;;5029631;28;20088;-48
2023/07/03 04:31:16;;;;;;;18.60;4.22;;;15.00;99.90;;;;;;5029490;28;20026;-50
2023/07/03 04:33:44;;;;;;;17.17;4.00;;;15.00;99.90;;;;;;5028820;28;20045;-52
2023/07/03 04:36:13;;;;;;;22.08;4.93;;;15.00;99.90;;;;;;5031672;28;20046;-51
2023/07/03 04:38:41;;;;;;;13.85;3.63;;;15.00;99.90;;;;;;5029798;28;20037;-48
2023/07/03 04:41:08;;;;;;;15.70;4.03;;;15.00;99.90;;;;;;5031420;28;20046;-51
2023/07/03 04:43:33;;;;;;;;;;;15.00;99.90;;;;;;5029699;28;20087;-48
2023/07/03 04:46:03;;;;;;;15.15;3.63;;;15.00;99.90;;;;;;5031610;28;19917;-49
2023/07/03 04:48:30;;;;;;;17.83;4.25;;;15.10;99.90;;;;;;5030649;28;20450;-51
2023/07/03 04:50:55;;;;;;;11.07;3.92;;;15.10;99.90;;;;;;5032138;28;20080;-52
2023/07/03 04:53:21;;;;;;;18.00;4.10;;;15.10;99.90;;;;;;5031061;28;20069;-53
2023/07/03 04:55:47;;;;;;;14.32;3.40;;;15.20;99.90;;;;;;5031971;28;20120;-48
2023/07/03 04:58:14;;;;;;;18.40;4.47;;;15.20;99.90;;;;;;5031047;28;20148;-49
2023/07/03 05:00:40;;;;;;;11.48;3.20;;;15.30;99.90;;;;;;5031774;28;20057;-48
2023/07/03 05:03:07;;;;;;;17.50;3.60;;;15.30;99.90;;;;;;5030333;28;20662;-53
2023/07/03 05:05:33;;;;;;;15.77;3.47;;;15.40;99.90;;;;;;5030039;28;20091;-49
2023/07/03 05:07:58;;;;;;;15.07;3.58;;;15.40;99.90;;;;;;5029524;28;20030;-50
2023/07/03 05:10:24;;;;;;;16.98;3.60;;;15.40;99.90;;;;;;5030535;28;20033;-51
2023/07/03 05:12:50;;;;;;;17.73;4.28;;;15.50;99.90;;;;;;5029778;28;20056;-48
2023/07/03 05:15:18;;;;;;;15.35;3.47;;;15.60;99.90;;;;;;5029794;28;20037;-51
2023/07/03 05:17:49;;;;;;;22.23;4.85;;;15.60;99.90;;;;;;5026572;28;20037;-48
2023/07/03 05:20:16;;;;;;;12.73;3.67;;;15.70;99.90;;;;;;5030617;28;20029;-50
2023/07/03 05:22:43;;;;;;;14.68;3.90;;;15.70;99.90;;;;;;5029950;28;20056;-48
2023/07/03 05:25:11;;;;;;;22.08;4.03;;;15.80;99.90;;;;;;5029422;28;20550;-51
2023/07/03 05:27:37;;;;;;;21.50;5.13;;;15.90;99.90;;;;;;5027867;28;20534;-48
2023/07/03 05:30:04;;;;;;;23.48;4.50;;;16.00;99.90;;;;;;5029744;28;20104;-52
2023/07/03 05:32:29;;;;;;;;;;;16.00;99.90;;;;;;5029966;28;20116;-53
2023/07/03 05:34:55;;;;;;;21.00;4.82;;;16.10;99.90;;;;;;5029056;28;20024;-48
2023/07/03 05:37:21;;;;;;;16.25;4.55;;;16.10;99.90;;;;;;5030016;28;20033;-48
2023/07/03 05:39:48;;;;;;;23.10;4.45;;;16.10;99.90;;;;;;5028874;28;20041;-48
2023/07/03 05:42:15;;;;;;;24.35;4.20;;;16.30;99.90;;;;;;5028960;28;20063;-49
2023/07/03 05:44:41;;;;;;;20.15;5.38;;;16.30;99.90;;;;;;5028544;28;20116;-48
2023/07/03 05:47:07;;;;;;;15.88;3.88;;;16.40;99.90;;;;;;5028982;28;20109;-50
2023/07/03 05:49:32;;;;;;;16.70;3.95;;;16.50;99.90;;;;;;5028630;28;20124;-52
2023/07/03 05:51:58;;;;;;;14.10;3.30;;;16.60;99.90;;;;;;5028226;28;20491;-53
2023/07/03 05:54:24;;;;;;;14.90;3.30;;;16.60;99.90;;;;;;5026494;28;20037;-50
2023/07/03 05:57:07;;;;;;;15.02;3.55;;;16.60;99.90;;;;;;5029045;28;20376;-48
2023/07/03 05:59:34;;;;;;;18.92;3.97;;;16.70;99.90;;;;;;5028231;28;20042;-48
2023/07/03 06:01:59;;;;;;;15.45;3.30;;;16.80;99.90;;;;;;5026130;28;20041;-48
2023/07/03 06:04:25;;;;;;;12.93;2.88;;;16.90;99.90;;;;;;4992887;28;1042244;-51
2023/07/03 06:06:55;;;;;;;13.68;3.28;;;17.00;99.90;;;;;;5025791;28;20041;-47
2023/07/03 06:09:25;;;;;;;16.55;3.10;;;17.10;99.90;;;;;;5028488;28;20048;-47
2023/07/03 06:11:51;;;;;;;15.32;2.50;;;17.20;99.90;;;;;;5028996;28;20727;-55
2023/07/03 06:14:18;;;;;;;9.25;1.92;;;17.20;99.90;;;;;;5029578;28;20045;-55
2023/07/03 06:16:44;;;;;;;13.07;2.03;;;17.10;99.90;;;;;;5028870;28;20064;-52
2023/07/03 06:19:11;;;;;;;10.90;2.00;;;17.00;99.90;;;;;;5028634;28;20041;-54
2023/07/03 06:21:37;;;;;;;12.25;1.90;;;16.90;99.90;;;;;;5027841;28;20041;-51
2023/07/03 06:24:04;;;;;;;15.73;3.05;;;16.90;99.90;;;;;;5025197;28;20505;-51
2023/07/03 06:26:30;;;;;;;21.90;3.45;;;17.00;99.90;;;;;;5027378;28;20069;-53
2023/07/03 06:28:56;;;;;;;15.80;2.80;;;17.10;99.90;;;;;;5028972;28;20407;-48
2023/07/03 06:31:22;;;;;;;9.80;2.38;;;17.20;99.90;;;;;;5026828;28;20040;-52
2023/07/03 06:33:47;;;;;;;14.30;2.70;;;17.20;99.90;;;;;;5027476;28;20083;-53
2023/07/03 06:36:20;;;;;;;11.00;2.10;;;17.20;99.90;;;;;;5026915;28;20056;-48
2023/07/03 06:38:47;;;;;;;13.07;2.55;;;17.30;99.90;;;;;;5022663;28;20049;-54
2023/07/03 06:41:12;;;;;;;15.15;2.60;;;17.30;99.90;;;;;;5029513;28;20045;-49
2023/07/03 06:43:38;;;;;;;9.98;2.05;;;17.30;99.90;;;;;;5028373;28;20030;-48
2023/07/03 06:46:03;;;;;;;12.60;2.60;;;17.40;99.90;;;;;;5029672;28;20061;-50
2023/07/03 06:48:29;;;;;;;14.52;2.17;;;17.40;99.90;;;;;;5026045;28;20029;-53
2023/07/03 06:51:03;;;;;;;13.82;2.72;;;17.40;99.90;;;;;;5030022;28;20514;-52
2023/07/03 06:53:28;;;;;;;13.50;2.78;;;17.40;99.90;;;;;;5027109;28;20103;-52
2023/07/03 06:55:58;;;;;;;16.08;2.88;;;17.40;99.90;;;;;;5029602;28;20041;-52
2023/07/03 06:58:25;;;;;;;13.95;2.45;;;17.40;99.90;;;;;;5026291;28;20048;-51
2023/07/03 07:00:51;;;;;;;8.95;1.65;;;17.50;99.90;;;;;;5029850;28;20037;-52
2023/07/03 07:03:17;;;;;;;11.20;1.98;;;17.60;99.90;;;;;;5027354;28;20482;-52
2023/07/03 07:05:42;;;;;;;9.40;1.23;;;17.60;99.90;;;;;;5027345;28;20513;-53
2023/07/03 07:08:08;;;;;;;7.28;1.63;;;17.70;99.90;;;;;;5027700;28;20526;-53
2023/07/03 07:10:38;;;;;;;9.48;1.58;;;17.70;99.90;;;;;;5029460;28;20039;-48
2023/07/03 07:13:04;;;;;;;9.80;1.80;;;17.70;99.90;;;;;;5028724;28;20079;-53
2023/07/03 07:15:34;;;;;;;8.00;1.25;;;17.60;99.90;;;;;;5030039;28;20060;-52
2023/07/03 07:18:00;;;;;;;14.20;1.83;;;17.60;99.90;;;;;;5027459;28;20056;-52
2023/07/03 07:20:26;;;;;;;8.77;1.40;;;17.50;99.90;;;;;;5028124;28;20049;-54
2023/07/03 07:22:51;;;;;;;10.95;0.82;;;17.60;99.90;;;;;;5028697;28;20047;-56
2023/07/03 07:25:17;;;;;;;6.22;1.35;;;17.60;99.90;;;;;;5023058;28;20025;-56
2023/07/03 07:27:42;;;;;;;12.77;1.27;;;17.70;99.90;;;;;;5026431;28;20495;-50
2023/07/03 07:30:09;;;;;;;6.50;2.03;;;17.70;99.90;;;;;;5025230;28;20040;-55
2023/07/03 07:32:34;;;;;;;;;;;17.70;99.90;;;;;;5027675;28;20041;-56
2023/07/03 07:35:00;;;;;;;13.55;2.13;;;17.70;99.90;;;;;;5026106;28;19979;-56
2023/07/03 07:37:25;;;;;;;8.45;1.52;;;17.70;99.90;;;;;;5027055;28;20342;-56
2023/07/03 07:39:51;;;;;;;10.65;1.88;;;17.70;99.90;;;;;;5025930;28;20041;-56
2023/07/03 07:42:16;;;;;;;11.27;1.40;;;17.60;99.90;;;;;;5027003;28;20034;-56
2023/07/03 07:44:42;;;;;;;9.32;1.60;;;17.50;99.90;;;;;;5023924;28;20030;-57
2023/07/03 07:47:09;;;;;;;4.10;1.13;;;17.40;99.90;;;;;;5026378;28;20052;-50
2023/07/03 07:49:35;;;;;;;11.55;2.03;;;17.30;99.90;;;;;;5026379;28;20109;-56
2023/07/03 07:52:01;;;;;;;9.18;1.67;;;17.20;99.90;;;;;;5028836;28;20482;-53
2023/07/03 07:54:26;;;;;;;11.73;2.13;;;17.10;99.90;;;;;;5028253;28;20112;-56
2023/07/03 07:56:52;;;;;;;8.35;1.48;;;17.10;99.90;;;;;;5028056;28;20414;-55
2023/07/03 07:59:18;;;;;;;7.93;1.35;;;17.20;99.90;;;;;;5025500;28;20038;-55
2023/07/03 08:01:43;;;;;;;9.95;1.55;;;17.20;99.90;;;;;;5028128;28;20040;-55
2023/07/03 08:04:09;;;;;;;11.68;1.40;;;17.30;99.90;;;;;;5027724;28;20034;-55
2023/07/03 08:06:34;;;;;;;8.07;1.58;;;17.40;99.90;;;;;;5028613;28;20038;-54
2023/07/03 08:09:00;;;;;;;14.27;1.85;;;17.40;99.90;;;;;;5025794;28;20087;-51
2023/07/03 08:11:29;;;;;;;15.93;2.17;;;17.40;99.90;;;;;;5027458;28;20179;-56
2023/07/03 08:13:55;;;;;;;8.65;1.88;;;17.40;99.90;;;;;;5021056;28;20106;-58
2023/07/03 08:16:20;;;;;;;9.48;1.77;;;17.60;99.90;;;;;;5023008;28;20121;-55
2023/07/03 08:18:46;;;;;;;8.90;1.90;;;17.70;99.90;;;;;;5019388;28;20483;-53
2023/07/03 08:21:12;;;;;;;8.20;1.00;;;17.90;99.90;;;;;;5018175;28;20045;-56
2023/07/03 08:23:38;;;;;;;7.47;1.48;;;18.10;99.90;;;;;;5007145;28;20358;-56
2023/07/03 08:26:04;;;;;;;8.77;1.23;;;18.20;99.60;;;;;;5005205;28;20121;-58
2023/07/03 08:28:30;;;;;;;10.65;1.40;;;18.20;99.50;;;;;;5023431;28;20033;-50
2023/07/03 08:30:57;;;;;;;9.35;1.88;;;18.20;99.50;;;;;;5016371;28;20045;-55
2023/07/03 08:33:23;;;;;;;13.77;1.65;;;18.10;99.50;;;;;;5013533;28;20487;-52
2023/07/03 08:35:49;;;;;;;8.85;2.15;;;18.10;99.70;;;;;;5018121;28;20037;-56
2023/07/03 08:38:14;;;;;;;9.15;1.25;;;18.00;99.40;;;;;;5019865;28;20602;-55
2023/07/03 08:40:41;;;;;;;11.45;1.75;;;18.00;99.70;;;;;;5023525;28;20038;-54
2023/07/03 08:43:13;;;;;;;8.18;1.40;;;17.90;99.80;;;;;;5020868;28;20038;-55
2023/07/03 08:45:43;;;;;;;9.80;1.80;;;17.90;99.60;;;;;;5021369;28;20025;-57
2023/07/03 08:48:25;;;;;;;11.55;1.63;;;18.00;99.90;;;;;;5021963;28;20490;-50
2023/07/03 08:50:58;;;;;;;7.32;1.10;;;18.10;99.30;;;;;;5016368;28;20076;-55
2023/07/03 08:53:30;;;;;;;13.93;1.60;;;18.20;99.90;;;;;;5022481;28;20087;-56
2023/07/03 08:56:16;;;;;;;7.13;1.33;;;18.50;99.90;;;;;;5024118;28;20248;-56
2023/07/03 08:58:43;;;;;;;13.43;1.88;;;18.70;99.00;;;;;;5021791;28;20108;-56
2023/07/03 09:01:15;;;;;;;9.70;1.55;;;18.80;99.40;;;;;;5019469;28;20050;-50
2023/07/03 09:03:52;;;;;;;10.43;1.95;;;18.90;99.30;;;;;;5022972;28;20165;-51
2023/07/03 09:06:48;;;;;;;5.03;0.93;;;19.00;98.50;;;;;;5024269;28;20560;-52
2023/07/03 09:09:45;;;;;;;10.20;1.60;;;18.90;98.10;;;;;;5014757;28;20038;-51
2023/07/03 09:12:27;;;;;;;10.15;1.33;;;19.00;98.10;;;;;;5025805;28;20491;-55
2023/07/03 09:15:00;;;;;;;10.30;2.00;;;19.00;97.70;;;;;;5026904;28;20052;-57
2023/07/03 09:17:26;;;;;;;9.35;1.75;;;18.90;97.60;;;;;;5022185;28;20061;-57
2023/07/03 09:19:53;;;;;;;9.30;1.25;;;18.70;96.90;;;;;;5025780;28;20045;-56
2023/07/03 09:22:31;;;;;;;7.85;1.77;;;18.50;97.30;;;;;;5020414;28;20199;-55
2023/07/03 09:25:01;;;;;;;8.45;1.75;;;18.30;97.40;;;;;;5014110;28;20095;-53
2023/07/03 09:27:28;;;;;;;7.22;0.88;;;18.20;97.40;;;;;;5024155;28;20055;-55
2023/07/03 09:30:07;;;;;;;7.13;0.90;;;18.10;97.60;;;;;;5019547;28;20306;-53
2023/07/03 09:32:33;;;;;;;5.32;1.13;;;18.10;97.30;;;;;;5024022;28;20079;-56
2023/07/03 09:35:05;;;;;;;;;;;18.20;98.00;;;;;;5018445;28;20565;-54
2023/07/03 09:37:31;;;;;;;13.07;1.60;;;18.30;97.70;;;;;;5023728;28;19916;-55
2023/07/03 09:39:56;;;;;;;5.90;1.40;;;18.30;97.10;;;;;;5017589;28;20029;-57
2023/07/03 09:42:22;;;;;;;10.75;1.20;;;18.20;97.00;;;;;;5026244;28;20041;-53
2023/07/03 09:44:49;;;;;;;10.35;1.65;;;18.20;97.30;;;;;;5025536;28;20057;-53
2023/07/03 09:47:35;;;;;;;13.15;1.63;;;18.10;97.20;;;;;;5035922;28;20538;-56
2023/07/03 09:50:06;;;;;;;6.00;1.35;;;18.00;96.90;;;;;;5024862;28;20400;-55
2023/07/03 09:52:32;;;;;;;8.35;1.00;;;18.00;97.30;;;;;;5025356;28;20041;-56
2023/07/03 09:55:02;;;;;;;8.13;1.42;;;17.90;97.50;;;;;;5020526;28;20045;-54
2023/07/03 09:57:28;;;;;;;8.00;1.38;;;17.90;97.60;;;;;;5023374;28;20236;-57
2023/07/03 10:00:03;;;;;;;9.25;1.10;;;18.00;97.40;;;;;;5021785;28;20033;-57
2023/07/03 10:02:29;;;;;;;12.55;1.40;;;18.10;96.80;;;;;;5025974;28;20163;-54
2023/07/03 10:04:54;;;;;;;8.68;1.13;;;18.20;97.00;;;;;;5023703;28;20537;-54
2023/07/03 10:07:20;;;;;;;9.20;1.17;;;18.20;96.40;;;;;;5024988;28;20041;-55
2023/07/03 10:09:46;;;;;;;10.32;1.55;;;18.30;96.60;;;;;;5023399;28;20532;-57
2023/07/03 10:12:33;;;;;;;4.30;0.80;;;18.60;97.10;;;;;;5025926;28;20030;-55
2023/07/03 10:15:01;;;;;;;12.25;1.10;;;18.90;96.20;;;;;;5021580;28;20044;-56
2023/07/03 10:17:44;;;;;;;7.72;1.35;;;19.20;96.70;;;;;;5019623;28;20042;-56
2023/07/03 10:20:20;;;;;;;7.20;1.55;;;19.30;95.10;;;;;;5021488;28;20064;-55
2023/07/03 10:22:49;;;;;;;;;;;19.30;94.70;;;;;;5029161;28;20082;-57
2023/07/03 10:25:24;;;;;;;5.72;0.75;;;19.30;94.70;;;;;;5025430;28;20279;-53
2023/07/03 10:27:57;;;;;;;6.38;1.02;;;19.20;95.10;;;;;;5025570;28;20091;-53
2023/07/03 10:30:24;;;;;;;7.28;0.93;;;19.20;95.20;;;;;;5026220;28;20033;-52
2023/07/03 10:32:53;;;;;;;6.80;0.88;;;19.20;95.30;;;;;;5021177;28;20049;-54
2023/07/03 10:35:27;;;;;;;5.90;1.17;;;19.30;95.10;;;;;;5025998;28;20481;-55
2023/07/03 10:38:15;;;;;;;3.42;0.82;;;19.30;94.50;;;;;;5025243;28;20580;-56
2023/07/03 10:41:05;;;;;;;8.90;1.30;;;19.20;95.20;;;;;;5026471;28;20119;-55
2023/07/03 10:43:42;;;;;;;10.98;1.48;;;19.20;94.60;;;;;;5018895;28;20624;-56
2023/07/03 10:46:15;;;;;;;9.23;1.00;;;19.00;94.30;;;;;;5014208;28;20116;-57
2023/07/03 10:48:43;;;;;;;4.88;0.63;;;18.90;94.20;;;;;;5020013;28;20041;-53
2023/07/03 10:51:38;;;;;;;7.38;0.75;;;18.90;93.80;;;;;;5014343;28;20041;-52
2023/07/03 10:54:14;;;;;;;9.38;1.75;;;18.80;93.60;;;;;;5023445;28;20050;-55
2023/07/03 10:56:50;;;;;;;9.25;0.77;;;19.00;94.10;;;;;;5016472;28;20041;-53
2023/07/03 10:59:21;;;;;;;5.20;0.40;;;19.20;93.00;;;;;;5019152;28;20041;-55
2023/07/03 11:02:09;;;;;;;3.75;0.65;;;19.20;92.80;;;;;;5016474;28;20090;-57
2023/07/03 11:05:15;;;;;;;3.33;0.57;;;19.20;92.50;;;;;;5015646;28;20037;-54
2023/07/03 11:07:56;;;;;;;5.28;0.68;;;19.40;92.20;;;;;;5022476;28;20068;-56
2023/07/03 11:10:31;;;;;;;4.43;0.40;;;19.50;92.10;;;;;;5018250;28;20558;-55
2023/07/03 11:13:11;;;;;;;4.53;0.40;;;19.40;90.90;;;;;;5034159;28;20437;-55
2023/07/03 11:15:50;;;;;;;4.68;0.52;;;19.30;91.30;;;;;;5022780;28;20037;-55
2023/07/03 11:18:25;;;;;;;9.88;0.43;;;19.10;91.40;;;;;;5013153;28;20044;-56
2023/07/03 11:21:16;;;;;;;5.88;0.70;;;19.00;91.70;;;;;;5022715;28;20132;-56
2023/07/03 11:24:14;;;;;;;3.63;0.50;;;18.90;90.90;;;;;;5023647;28;20121;-56
2023/07/03 11:26:45;;;;;;;7.32;0.82;;;18.90;91.60;;;;;;5018748;28;20037;-57
2023/07/03 11:29:12;;;;;;;7.10;0.90;;;19.00;92.40;;;;;;5024027;28;20100;-55
2023/07/03 11:31:42;;;;;;;8.32;1.05;;;19.30;93.00;;;;;;5025394;28;20044;-53
2023/07/03 11:34:11;;;;;;;7.25;0.77;;;19.60;91.90;;;;;;5023374;28;20306;-56
2023/07/03 11:36:42;;;;;;;7.82;0.60;;;19.90;91.80;;;;;;5023933;28;20084;-58
2023/07/03 11:39:19;;;;;;;5.28;0.60;;;20.10;91.70;;;;;;5022983;28;20383;-51
2023/07/03 11:42:01;;;;;;;6.43;0.95;;;20.20;91.40;;;;;;5022111;28;20052;-56
2023/07/03 11:44:38;;;;;;;11.57;0.93;;;20.20;90.90;;;;;;5020989;28;20049;-56
2023/07/03 11:47:22;;;;;;;4.97;0.70;;;20.20;90.30;;;;;;5023434;28;20064;-55
2023/07/03 11:49:58;;;;;;;11.07;1.27;;;20.00;91.00;;;;;;5013580;28;20047;-51
2023/07/03 11:52:30;;;;;;;4.85;0.73;;;19.70;90.20;;;;;;5018870;28;20099;-53
2023/07/03 11:55:10;;;;;;;6.10;0.50;;;19.50;90.90;;;;;;5021172;28;20041;-56
2023/07/03 11:57:41;;;;;;;3.97;0.40;;;19.20;90.80;;;;;;5018216;28;20168;-57
2023/07/03 12:00:22;;;;;;;6.90;0.60;;;19.10;91.20;;;;;;5019787;28;20049;-54
2023/07/03 12:02:48;;;;;;;5.93;0.40;;;19.00;91.20;;;;;;5021127;28;20040;-56
2023/07/03 12:05:39;;;;;;;3.97;0.70;;;18.80;91.40;;;;;;5019003;28;20037;-51
2023/07/03 12:08:19;;;;;;;4.20;0.47;;;18.80;91.40;;;;;;5019986;28;20037;-57
2023/07/03 12:10:52;;;;;;;10.80;1.33;;;18.90;91.80;;;;;;5019201;28;20037;-54
2023/07/03 12:13:32;;;;;;;5.75;0.50;;;19.00;91.30;;;;;;5021687;28;20410;-55
2023/07/03 12:16:02;;;;;;;9.27;0.68;;;19.10;90.90;;;;;;5017179;28;20040;-54
2023/07/03 12:18:28;;;;;;;7.75;0.50;;;19.30;91.30;;;;;;5021328;28;20172;-53
2023/07/03 12:20:59;;;;;;;4.20;0.52;;;19.40;91.40;;;;;;5023040;28;20330;-55
2023/07/03 12:23:54;;;;;;;4.15;0.40;;;19.50;91.00;;;;;;5021163;28;20041;-56
2023/07/03 12:26:21;;;;;;;7.82;0.90;;;19.50;90.50;;;;;;5010446;28;20048;-55
2023/07/03 12:28:47;;;;;;;3.70;0.43;;;19.30;90.30;;;;;;5021370;28;20398;-54
2023/07/03 12:31:22;;;;;;;2.97;0.40;;;19.20;91.10;;;;;;5021336;28;20029;-55
2023/07/03 12:33:57;;;;;;;6.00;0.55;;;19.20;90.70;;;;;;5019157;28;20340;-54
2023/07/03 12:36:24;;;;;;;3.60;0.80;;;19.20;90.30;;;;;;5021726;28;20490;-57
2023/07/03 12:38:49;;;;;;;4.35;0.73;;;19.00;90.60;;;;;;5019700;28;20051;-54
2023/07/03 12:41:39;;;;;;;4.15;0.52;;;18.90;90.40;;;;;;5022095;28;20685;-55
2023/07/03 12:44:07;;;;;;;5.95;0.30;;;18.80;90.60;;;;;;5022766;28;20042;-53
2023/07/03 12:46:37;;;;;;;7.22;0.90;;;18.60;90.10;;;;;;5024330;28;20103;-54
2023/07/03 12:49:09;;;;;;;3.05;0.55;;;18.50;90.10;;;;;;5022200;28;20384;-57
2023/07/03 12:52:04;;;;;;;5.90;0.88;;;18.30;90.30;;;;;;5022721;28;20041;-54
2023/07/03 12:54:29;;;;;;;5.55;0.50;;;18.20;90.50;;;;;;4972646;28;20110;-55